sensor_id;sensor_type;location;lat;lon;timestamp;pressure;altitude;pressure_sealevel;temperature;humidity
9225;BME280;4647;48.072;11.616;2023-12-20T00:01:37;95350.22;;;5.58;61.79
9225;BME280;4647;48.072;11.616;2023-12-20T00:04:06;95340.59;;;5.49;62.46
9225;BME280;4647;48.072;11.616;2023-12-20T00:06:34;95337.44;;;5.37;62.87
9225;BME280;4647;48.072;11.616;2023-12-20T00:09:03;95332.91;;;5.48;62.54
9225;BME280;4647;48.072;11.616;2023-12-20T00:11:34;95321.28;;;5.30;63.14
9225;BME280;4647;48.072;11.616;2023-12-20T00:14:02;95318.41;;;5.01;64.22
9225;BME280;4647;48.072;11.616;2023-12-20T00:16:30;95316.16;;;5.10;63.59
9225;BME280;4647;48.072;11.616;2023-12-20T00:18:59;95308.91;;;5.18;63.63
9225;BME280;4647;48.072;11.616;2023-12-20T00:21:28;95305.94;;;5.30;63.49
9225;BME280;4647;48.072;11.616;2023-12-20T00:23:56;95309.69;;;5.18;63.49
9225;BME280;4647;48.072;11.616;2023-12-20T00:26:25;95305.84;;;5.19;63.50
9225;BME280;4647;48.072;11.616;2023-12-20T00:28:57;95297.09;;;5.26;63.34
9225;BME280;4647;48.072;11.616;2023-12-20T00:31:26;95296.13;;;5.66;61.99
9225;BME280;4647;48.072;11.616;2023-12-20T00:33:54;95286.53;;;5.62;62.21
9225;BME280;4647;48.072;11.616;2023-12-20T00:36:23;95278.03;;;5.52;61.59
9225;BME280;4647;48.072;11.616;2023-12-20T00:38:51;95276.25;;;5.89;59.06
9225;BME280;4647;48.072;11.616;2023-12-20T00:41:19;95279.09;;;6.17;58.41
9225;BME280;4647;48.072;11.616;2023-12-20T00:43:48;95281.34;;;6.15;58.58
9225;BME280;4647;48.072;11.616;2023-12-20T00:46:19;95268.31;;;6.21;58.40
9225;BME280;4647;48.072;11.616;2023-12-20T00:48:47;95264.47;;;6.22;58.57
9225;BME280;4647;48.072;11.616;2023-12-20T00:51:17;95270.63;;;6.22;58.11
9225;BME280;4647;48.072;11.616;2023-12-20T00:53:46;95261.78;;;6.25;57.68
9225;BME280;4647;48.072;11.616;2023-12-20T00:56:14;95262.94;;;6.24;57.18
9225;BME280;4647;48.072;11.616;2023-12-20T00:58:43;95249.50;;;6.31;56.59
9225;BME280;4647;48.072;11.616;2023-12-20T01:01:11;95250.28;;;6.42;56.77
9225;BME280;4647;48.072;11.616;2023-12-20T01:03:42;95254.13;;;6.38;56.56
9225;BME280;4647;48.072;11.616;2023-12-20T01:06:11;95257.22;;;6.47;56.52
9225;BME280;4647;48.072;11.616;2023-12-20T01:08:41;95246.84;;;6.49;56.54
9225;BME280;4647;48.072;11.616;2023-12-20T01:11:09;95248.38;;;6.43;56.91
9225;BME280;4647;48.072;11.616;2023-12-20T01:13:37;95243.38;;;6.45;57.24
9225;BME280;4647;48.072;11.616;2023-12-20T01:16:06;95237.59;;;6.29;57.79
9225;BME280;4647;48.072;11.616;2023-12-20T01:18:34;95228.75;;;6.25;58.21
9225;BME280;4647;48.072;11.616;2023-12-20T01:21:06;95235.28;;;6.31;58.50
9225;BME280;4647;48.072;11.616;2023-12-20T01:23:35;95225.66;;;6.15;58.87
9225;BME280;4647;48.072;11.616;2023-12-20T01:26:03;95234.13;;;6.25;58.82
9225;BME280;4647;48.072;11.616;2023-12-20T01:28:32;95223.75;;;6.30;58.70
9225;BME280;4647;48.072;11.616;2023-12-20T01:31:00;95216.84;;;6.26;59.15
9225;BME280;4647;48.072;11.616;2023-12-20T01:33:29;95223.38;;;6.28;59.19
9225;BME280;4647;48.072;11.616;2023-12-20T01:35:57;95223.38;;;6.21;59.43
9225;BME280;4647;48.072;11.616;2023-12-20T01:38:28;95226.44;;;6.20;59.76
9225;BME280;4647;48.072;11.616;2023-12-20T01:40:57;95213.72;;;6.13;59.90
9225;BME280;4647;48.072;11.616;2023-12-20T01:43:26;95211.41;;;6.11;60.36
9225;BME280;4647;48.072;11.616;2023-12-20T01:45:56;95214.13;;;6.15;60.33
9225;BME280;4647;48.072;11.616;2023-12-20T01:48:25;95216.44;;;6.20;59.96
9225;BME280;4647;48.072;11.616;2023-12-20T01:50:55;95211.44;;;6.26;59.67
9225;BME280;4647;48.072;11.616;2023-12-20T01:53:25;95204.91;;;6.23;59.69
9225;BME280;4647;48.072;11.616;2023-12-20T01:55:58;95203.75;;;6.17;59.72
9225;BME280;4647;48.072;11.616;2023-12-20T01:58:26;95196.47;;;6.42;58.84
9225;BME280;4647;48.072;11.616;2023-12-20T02:00:57;95188.03;;;6.44;58.96
9225;BME280;4647;48.072;11.616;2023-12-20T02:03:25;95179.56;;;6.42;58.86
9225;BME280;4647;48.072;11.616;2023-12-20T02:05:54;95178.38;;;6.54;58.69
9225;BME280;4647;48.072;11.616;2023-12-20T02:08:23;95159.56;;;6.46;58.72
9225;BME280;4647;48.072;11.616;2023-12-20T02:10:51;95156.88;;;6.54;58.76
9225;BME280;4647;48.072;11.616;2023-12-20T02:13:22;95156.50;;;6.48;58.89
9225;BME280;4647;48.072;11.616;2023-12-20T02:15:52;95162.63;;;6.59;58.33
9225;BME280;4647;48.072;11.616;2023-12-20T02:18:22;95151.84;;;6.59;58.33
9225;BME280;4647;48.072;11.616;2023-12-20T02:20:50;95158.00;;;6.67;58.57
9225;BME280;4647;48.072;11.616;2023-12-20T02:23:21;95151.84;;;6.59;58.77
9225;BME280;4647;48.072;11.616;2023-12-20T02:25:50;95145.69;;;6.59;58.54
9225;BME280;4647;48.072;11.616;2023-12-20T02:28:18;95149.56;;;6.54;58.87
9225;BME280;4647;48.072;11.616;2023-12-20T02:30:48;95156.47;;;6.59;58.75
9225;BME280;4647;48.072;11.616;2023-12-20T02:33:16;95154.94;;;6.65;59.04
9225;BME280;4647;48.072;11.616;2023-12-20T02:35:45;95151.47;;;6.68;58.84
9225;BME280;4647;48.072;11.616;2023-12-20T02:38:16;95156.44;;;6.76;58.85
9225;BME280;4647;48.072;11.616;2023-12-20T02:40:47;95151.44;;;6.78;58.81
9225;BME280;4647;48.072;11.616;2023-12-20T02:43:15;95140.28;;;6.84;58.63
9225;BME280;4647;48.072;11.616;2023-12-20T02:45:44;95126.44;;;6.74;59.01
9225;BME280;4647;48.072;11.616;2023-12-20T02:48:12;95132.22;;;6.76;59.35
9225;BME280;4647;48.072;11.616;2023-12-20T02:50:41;95138.72;;;6.83;59.20
9225;BME280;4647;48.072;11.616;2023-12-20T02:53:09;95136.03;;;6.90;59.23
9225;BME280;4647;48.072;11.616;2023-12-20T02:55:38;95137.56;;;6.91;59.18
9225;BME280;4647;48.072;11.616;2023-12-20T02:58:09;95126.44;;;6.89;59.35
9225;BME280;4647;48.072;11.616;2023-12-20T03:00:37;95130.25;;;6.84;59.65
9225;BME280;4647;48.072;11.616;2023-12-20T03:03:06;95131.47;;;6.72;60.19
9225;BME280;4647;48.072;11.616;2023-12-20T03:05:34;95136.09;;;6.68;60.53
9225;BME280;4647;48.072;11.616;2023-12-20T03:08:03;95127.97;;;6.86;60.36
9225;BME280;4647;48.072;11.616;2023-12-20T03:10:32;95141.84;;;6.70;60.65
9225;BME280;4647;48.072;11.616;2023-12-20T03:13:00;95145.31;;;6.60;61.53
9225;BME280;4647;48.072;11.616;2023-12-20T03:15:31;95136.81;;;6.80;61.00
9225;BME280;4647;48.072;11.616;2023-12-20T03:18:00;95139.53;;;6.69;61.40
9225;BME280;4647;48.072;11.616;2023-12-20T03:20:28;95136.47;;;6.70;61.82
9225;BME280;4647;48.072;11.616;2023-12-20T03:22:58;95135.69;;;6.73;61.76
9225;BME280;4647;48.072;11.616;2023-12-20T03:25:27;95129.97;;;6.46;63.02
9225;BME280;4647;48.072;11.616;2023-12-20T03:27:55;95138.44;;;6.45;63.38
9225;BME280;4647;48.072;11.616;2023-12-20T03:30:24;95134.19;;;6.44;63.94
9225;BME280;4647;48.072;11.616;2023-12-20T03:32:55;95141.09;;;6.49;64.10
9225;BME280;4647;48.072;11.616;2023-12-20T03:35:23;95146.09;;;6.50;64.31
9225;BME280;4647;48.072;11.616;2023-12-20T03:37:51;95145.72;;;6.48;64.48
9225;BME280;4647;48.072;11.616;2023-12-20T03:40:20;95141.09;;;6.38;65.24
9225;BME280;4647;48.072;11.616;2023-12-20T03:42:48;95146.13;;;6.46;65.41
9225;BME280;4647;48.072;11.616;2023-12-20T03:45:17;95148.44;;;6.44;65.47
9225;BME280;4647;48.072;11.616;2023-12-20T03:47:45;95160.34;;;6.43;65.73
9225;BME280;4647;48.072;11.616;2023-12-20T03:50:16;95160.34;;;6.40;66.29
9225;BME280;4647;48.072;11.616;2023-12-20T03:52:45;95168.00;;;6.38;66.66
9225;BME280;4647;48.072;11.616;2023-12-20T03:55:14;95173.03;;;6.46;66.81
9225;BME280;4647;48.072;11.616;2023-12-20T03:57:42;95164.94;;;6.46;67.01
9225;BME280;4647;48.072;11.616;2023-12-20T04:00:11;95175.72;;;6.46;67.41
9225;BME280;4647;48.072;11.616;2023-12-20T04:02:41;95180.69;;;6.55;68.19
9225;BME280;4647;48.072;11.616;2023-12-20T04:05:10;95180.31;;;6.60;69.87
9225;BME280;4647;48.072;11.616;2023-12-20T04:07:41;95183.78;;;6.54;72.77
9225;BME280;4647;48.072;11.616;2023-12-20T04:10:09;95186.84;;;6.66;73.65
9225;BME280;4647;48.072;11.616;2023-12-20T04:12:38;95183.78;;;6.64;75.04
9225;BME280;4647;48.072;11.616;2023-12-20T04:15:07;95189.53;;;6.59;76.80
9225;BME280;4647;48.072;11.616;2023-12-20T04:17:37;95179.91;;;6.58;78.32
9225;BME280;4647;48.072;11.616;2023-12-20T04:20:07;95191.47;;;6.52;79.03
9225;BME280;4647;48.072;11.616;2023-12-20T04:22:36;95181.06;;;6.57;79.28
9225;BME280;4647;48.072;11.616;2023-12-20T04:25:08;95187.25;;;6.54;79.76
9225;BME280;4647;48.072;11.616;2023-12-20T04:27:36;95174.94;;;6.28;80.96
9225;BME280;4647;48.072;11.616;2023-12-20T04:30:06;95178.00;;;6.34;81.35
9225;BME280;4647;48.072;11.616;2023-12-20T04:32:35;95177.25;;;6.33;81.44
9225;BME280;4647;48.072;11.616;2023-12-20T04:35:04;95166.88;;;6.28;81.97
9225;BME280;4647;48.072;11.616;2023-12-20T04:37:33;95168.78;;;6.35;82.01
9225;BME280;4647;48.072;11.616;2023-12-20T04:40:07;95167.25;;;6.20;82.73
9225;BME280;4647;48.072;11.616;2023-12-20T04:42:36;95172.63;;;6.30;82.58
9225;BME280;4647;48.072;11.616;2023-12-20T04:45:06;95175.69;;;6.14;83.46
9225;BME280;4647;48.072;11.616;2023-12-20T04:47:34;95187.59;;;6.13;83.72
9225;BME280;4647;48.072;11.616;2023-12-20T04:50:04;95185.69;;;6.25;83.68
9225;BME280;4647;48.072;11.616;2023-12-20T04:52:33;95191.09;;;6.28;83.40
9225;BME280;4647;48.072;11.616;2023-12-20T04:55:01;95191.84;;;6.22;83.55
9225;BME280;4647;48.072;11.616;2023-12-20T04:57:36;95194.16;;;6.16;84.35
9225;BME280;4647;48.072;11.616;2023-12-20T05:00:08;95195.69;;;6.28;84.01
9225;BME280;4647;48.072;11.616;2023-12-20T05:02:37;95206.84;;;6.30;84.24
9225;BME280;4647;48.072;11.616;2023-12-20T05:05:07;95203.00;;;6.27;84.67
9225;BME280;4647;48.072;11.616;2023-12-20T05:07:36;95216.84;;;6.22;85.13
9225;BME280;4647;48.072;11.616;2023-12-20T05:10:06;95216.81;;;6.15;86.21
9225;BME280;4647;48.072;11.616;2023-12-20T05:12:37;95224.13;;;6.18;86.12
9225;BME280;4647;48.072;11.616;2023-12-20T05:15:06;95227.22;;;6.17;86.62
9225;BME280;4647;48.072;11.616;2023-12-20T05:17:35;95223.31;;;6.03;88.11
9225;BME280;4647;48.072;11.616;2023-12-20T05:20:05;95230.19;;;5.90;88.68
9225;BME280;4647;48.072;11.616;2023-12-20T05:22:34;95228.69;;;5.96;89.52
9225;BME280;4647;48.072;11.616;2023-12-20T05:25:03;95238.59;;;5.85;89.88
9225;BME280;4647;48.072;11.616;2023-12-20T05:27:31;95237.44;;;5.68;90.69
9225;BME280;4647;48.072;11.616;2023-12-20T05:30:03;95232.44;;;5.77;90.56
9225;BME280;4647;48.072;11.616;2023-12-20T05:32:31;95238.59;;;5.71;91.86
9225;BME280;4647;48.072;11.616;2023-12-20T05:35:00;95240.44;;;5.56;92.43
9225;BME280;4647;48.072;11.616;2023-12-20T05:37:28;95243.88;;;5.53;93.53
9225;BME280;4647;48.072;11.616;2023-12-20T05:39:57;95253.84;;;5.45;93.93
9225;BME280;4647;48.072;11.616;2023-12-20T05:42:25;95261.41;;;5.29;95.31
9225;BME280;4647;48.072;11.616;2023-12-20T05:44:54;95256.09;;;5.40;95.40
9225;BME280;4647;48.072;11.616;2023-12-20T05:47:25;95266.75;;;5.22;96.23
9225;BME280;4647;48.072;11.616;2023-12-20T05:49:53;95274.38;;;5.16;96.44
9225;BME280;4647;48.072;11.616;2023-12-20T05:52:22;95270.53;;;5.14;96.84
9225;BME280;4647;48.072;11.616;2023-12-20T05:54:50;95282.03;;;5.11;96.60
9225;BME280;4647;48.072;11.616;2023-12-20T05:57:18;95285.84;;;5.06;96.29
9225;BME280;4647;48.072;11.616;2023-12-20T05:59:48;95277.00;;;5.02;95.87
9225;BME280;4647;48.072;11.616;2023-12-20T06:02:17;95276.88;;;4.88;96.52
9225;BME280;4647;48.072;11.616;2023-12-20T06:04:48;95297.63;;;4.94;96.24
9225;BME280;4647;48.072;11.616;2023-12-20T06:07:16;95293.00;;;4.91;96.29
9225;BME280;4647;48.072;11.616;2023-12-20T06:09:46;95291.03;;;4.85;96.79
9225;BME280;4647;48.072;11.616;2023-12-20T06:12:14;95291.44;;;4.87;96.73
9225;BME280;4647;48.072;11.616;2023-12-20T06:14:42;95291.75;;;4.75;97.46
9225;BME280;4647;48.072;11.616;2023-12-20T06:17:11;95306.38;;;4.84;96.80
9225;BME280;4647;48.072;11.616;2023-12-20T06:19:39;95309.31;;;4.69;97.58
9225;BME280;4647;48.072;11.616;2023-12-20T06:22:12;95308.50;;;4.65;97.51
9225;BME280;4647;48.072;11.616;2023-12-20T06:24:41;95316.16;;;4.62;97.57
9225;BME280;4647;48.072;11.616;2023-12-20T06:27:10;95316.19;;;4.66;97.34
9225;BME280;4647;48.072;11.616;2023-12-20T06:29:38;95316.97;;;4.70;97.38
9225;BME280;4647;48.072;11.616;2023-12-20T06:32:08;95328.78;;;4.58;97.59
9225;BME280;4647;48.072;11.616;2023-12-20T06:34:36;95324.59;;;4.61;97.63
9225;BME280;4647;48.072;11.616;2023-12-20T06:37:06;95324.97;;;4.63;97.54
9225;BME280;4647;48.072;11.616;2023-12-20T06:39:39;95327.72;;;4.70;97.12
9225;BME280;4647;48.072;11.616;2023-12-20T06:42:08;95339.75;;;4.46;97.83
9225;BME280;4647;48.072;11.616;2023-12-20T06:44:36;95338.91;;;4.35;97.73
9225;BME280;4647;48.072;11.616;2023-12-20T06:47:05;95350.00;;;4.34;98.04
9225;BME280;4647;48.072;11.616;2023-12-20T06:49:33;95350.41;;;4.36;98.78
9225;BME280;4647;48.072;11.616;2023-12-20T06:52:04;95368.88;;;4.44;98.13
9225;BME280;4647;48.072;11.616;2023-12-20T06:54:33;95365.59;;;4.24;97.13
9225;BME280;4647;48.072;11.616;2023-12-20T06:57:05;95362.97;;;4.28;98.03
9225;BME280;4647;48.072;11.616;2023-12-20T06:59:38;95352.03;;;4.10;98.18
9225;BME280;4647;48.072;11.616;2023-12-20T07:02:08;95376.50;;;4.05;98.76
9225;BME280;4647;48.072;11.616;2023-12-20T07:04:40;95363.94;;;4.13;98.64
9225;BME280;4647;48.072;11.616;2023-12-20T07:07:09;95360.41;;;4.05;98.80
9225;BME280;4647;48.072;11.616;2023-12-20T07:09:37;95365.91;;;4.19;98.74
9225;BME280;4647;48.072;11.616;2023-12-20T07:12:10;95368.38;;;4.01;99.29
9225;BME280;4647;48.072;11.616;2023-12-20T07:14:39;95365.41;;;4.07;99.32
9225;BME280;4647;48.072;11.616;2023-12-20T07:17:07;95382.25;;;4.07;99.02
9225;BME280;4647;48.072;11.616;2023-12-20T07:19:38;95384.94;;;4.07;99.00
9225;BME280;4647;48.072;11.616;2023-12-20T07:22:07;95394.94;;;4.10;98.90
9225;BME280;4647;48.072;11.616;2023-12-20T07:24:36;95391.69;;;3.97;99.52
9225;BME280;4647;48.072;11.616;2023-12-20T07:27:04;95391.19;;;4.18;98.58
9225;BME280;4647;48.072;11.616;2023-12-20T07:29:36;95399.47;;;4.06;99.16
9225;BME280;4647;48.072;11.616;2023-12-20T07:32:06;95396.47;;;4.11;99.42
9225;BME280;4647;48.072;11.616;2023-12-20T07:34:34;95411.97;;;3.95;99.05
9225;BME280;4647;48.072;11.616;2023-12-20T07:37:03;95410.59;;;4.08;98.98
9225;BME280;4647;48.072;11.616;2023-12-20T07:39:31;95412.16;;;4.09;99.17
9225;BME280;4647;48.072;11.616;2023-12-20T07:42:02;95414.09;;;4.12;99.09
9225;BME280;4647;48.072;11.616;2023-12-20T07:44:31;95404.09;;;4.09;99.26
9225;BME280;4647;48.072;11.616;2023-12-20T07:47:04;95414.91;;;4.16;98.54
9225;BME280;4647;48.072;11.616;2023-12-20T07:49:32;95410.69;;;4.15;98.42
9225;BME280;4647;48.072;11.616;2023-12-20T07:52:01;95407.94;;;4.08;99.06
9225;BME280;4647;48.072;11.616;2023-12-20T07:54:29;95408.75;;;4.12;99.30
9225;BME280;4647;48.072;11.616;2023-12-20T07:56:58;95405.41;;;4.22;98.58
9225;BME280;4647;48.072;11.616;2023-12-20T07:59:24;95419.53;;;4.19;98.70
9225;BME280;4647;48.072;11.616;2023-12-20T08:01:52;95408.09;;;4.22;98.91
9225;BME280;4647;48.072;11.616;2023-12-20T08:04:23;95411.50;;;4.19;98.75
9225;BME280;4647;48.072;11.616;2023-12-20T08:06:52;95411.59;;;4.26;98.60
9225;BME280;4647;48.072;11.616;2023-12-20T08:09:21;95419.22;;;4.24;98.73
9225;BME280;4647;48.072;11.616;2023-12-20T08:11:49;95424.56;;;4.24;98.67
9225;BME280;4647;48.072;11.616;2023-12-20T08:14:18;95420.13;;;4.36;97.96
9225;BME280;4647;48.072;11.616;2023-12-20T08:16:46;95414.81;;;4.39;97.98
9225;BME280;4647;48.072;11.616;2023-12-20T08:19:15;95425.97;;;4.45;97.59
9225;BME280;4647;48.072;11.616;2023-12-20T08:21:46;95422.81;;;4.36;97.86
9225;BME280;4647;48.072;11.616;2023-12-20T08:24:14;95422.81;;;4.36;98.48
9225;BME280;4647;48.072;11.616;2023-12-20T08:26:43;95418.66;;;4.42;98.20
9225;BME280;4647;48.072;11.616;2023-12-20T08:29:12;95424.53;;;4.21;99.28
9225;BME280;4647;48.072;11.616;2023-12-20T08:31:41;95421.91;;;4.24;99.11
9225;BME280;4647;48.072;11.616;2023-12-20T08:34:10;95430.81;;;4.32;98.90
9225;BME280;4647;48.072;11.616;2023-12-20T08:36:40;95431.81;;;4.20;99.60
9225;BME280;4647;48.072;11.616;2023-12-20T08:39:11;95428.34;;;4.20;98.76
9225;BME280;4647;48.072;11.616;2023-12-20T08:41:40;95436.06;;;4.25;98.88
9225;BME280;4647;48.072;11.616;2023-12-20T08:44:08;95433.34;;;4.21;98.52
9225;BME280;4647;48.072;11.616;2023-12-20T08:46:37;95434.06;;;4.15;99.02
9225;BME280;4647;48.072;11.616;2023-12-20T08:49:05;95439.50;;;4.22;99.09
9225;BME280;4647;48.072;11.616;2023-12-20T08:51:35;95430.69;;;4.21;99.18
9225;BME280;4647;48.072;11.616;2023-12-20T08:54:05;95427.22;;;4.21;99.12
9225;BME280;4647;48.072;11.616;2023-12-20T08:56:37;95432.28;;;4.26;99.25
9225;BME280;4647;48.072;11.616;2023-12-20T08:59:05;95428.13;;;4.32;99.04
9225;BME280;4647;48.072;11.616;2023-12-20T09:01:36;95425.81;;;4.30;98.69
9225;BME280;4647;48.072;11.616;2023-12-20T09:04:04;95425.88;;;4.34;99.21
9225;BME280;4647;48.072;11.616;2023-12-20T09:06:33;95432.72;;;4.31;98.68
9225;BME280;4647;48.072;11.616;2023-12-20T09:09:01;95427.06;;;4.40;98.33
9225;BME280;4647;48.072;11.616;2023-12-20T09:11:30;95427.69;;;4.60;97.63
9225;BME280;4647;48.072;11.616;2023-12-20T09:14:02;95423.16;;;4.68;97.46
9225;BME280;4647;48.072;11.616;2023-12-20T09:16:30;95426.69;;;4.75;96.95
9225;BME280;4647;48.072;11.616;2023-12-20T09:18:59;95417.53;;;4.80;96.77
9225;BME280;4647;48.072;11.616;2023-12-20T09:21:28;95418.25;;;4.73;96.38
9225;BME280;4647;48.072;11.616;2023-12-20T09:23:57;95433.72;;;4.87;96.03
9225;BME280;4647;48.072;11.616;2023-12-20T09:26:25;95429.44;;;4.82;96.33
9225;BME280;4647;48.072;11.616;2023-12-20T09:28:54;95435.97;;;4.81;96.32
9225;BME280;4647;48.072;11.616;2023-12-20T09:31:25;95426.75;;;4.82;96.13
9225;BME280;4647;48.072;11.616;2023-12-20T09:33:53;95439.75;;;4.77;95.74
9225;BME280;4647;48.072;11.616;2023-12-20T09:36:21;95428.75;;;4.89;95.42
9225;BME280;4647;48.072;11.616;2023-12-20T09:38:50;95421.47;;;4.89;95.76
9225;BME280;4647;48.072;11.616;2023-12-20T09:41:19;95437.59;;;4.93;94.75
9225;BME280;4647;48.072;11.616;2023-12-20T09:43:49;95437.00;;;5.10;95.03
9225;BME280;4647;48.072;11.616;2023-12-20T09:46:20;95436.13;;;4.99;94.94
9225;BME280;4647;48.072;11.616;2023-12-20T09:48:56;95441.00;;;5.27;93.34
9225;BME280;4647;48.072;11.616;2023-12-20T09:51:26;95433.94;;;5.12;94.19
9225;BME280;4647;48.072;11.616;2023-12-20T09:53:56;95429.44;;;5.23;93.90
9225;BME280;4647;48.072;11.616;2023-12-20T09:56:25;95433.34;;;5.29;93.41
9225;BME280;4647;48.072;11.616;2023-12-20T09:58:54;95421.25;;;5.09;94.06
9225;BME280;4647;48.072;11.616;2023-12-20T10:01:23;95417.09;;;5.18;94.28
9225;BME280;4647;48.072;11.616;2023-12-20T10:03:57;95408.22;;;5.11;94.11
9225;BME280;4647;48.072;11.616;2023-12-20T10:06:27;95422.44;;;5.15;94.24
9225;BME280;4647;48.072;11.616;2023-12-20T10:08:55;95420.88;;;5.10;95.15
9225;BME280;4647;48.072;11.616;2023-12-20T10:11:24;95403.06;;;5.36;94.43
9225;BME280;4647;48.072;11.616;2023-12-20T10:13:59;95405.31;;;5.30;93.26
9225;BME280;4647;48.072;11.616;2023-12-20T10:16:28;95400.75;;;5.34;93.99
9225;BME280;4647;48.072;11.616;2023-12-20T10:19:00;95406.50;;;5.36;94.56
9225;BME280;4647;48.072;11.616;2023-12-20T10:21:29;95393.88;;;5.40;94.13
9225;BME280;4647;48.072;11.616;2023-12-20T10:24:00;95397.78;;;5.46;93.35
9225;BME280;4647;48.072;11.616;2023-12-20T10:26:29;95398.97;;;5.56;93.20
9225;BME280;4647;48.072;11.616;2023-12-20T10:29:00;95392.06;;;5.55;92.84
9225;BME280;4647;48.072;11.616;2023-12-20T10:31:31;95376.69;;;5.48;93.05
9225;BME280;4647;48.072;11.616;2023-12-20T10:34:02;95407.41;;;5.51;93.04
9225;BME280;4647;48.072;11.616;2023-12-20T10:36:32;95389.75;;;5.50;93.05
9225;BME280;4647;48.072;11.616;2023-12-20T10:39:01;95394.03;;;5.65;92.52
9225;BME280;4647;48.072;11.616;2023-12-20T10:41:31;95398.22;;;5.55;92.11
9225;BME280;4647;48.072;11.616;2023-12-20T10:44:06;95388.66;;;5.65;92.38
9225;BME280;4647;48.072;11.616;2023-12-20T10:46:37;95387.19;;;5.75;91.89
9225;BME280;4647;48.072;11.616;2023-12-20T10:49:16;95382.56;;;5.68;92.31
9225;BME280;4647;48.072;11.616;2023-12-20T10:51:47;95377.91;;;5.65;92.79
9225;BME280;4647;48.072;11.616;2023-12-20T10:54:17;95380.22;;;5.67;93.29
9225;BME280;4647;48.072;11.616;2023-12-20T10:56:45;95369.13;;;5.68;92.04
9225;BME280;4647;48.072;11.616;2023-12-20T10:59:17;95373.31;;;5.66;91.79
9225;BME280;4647;48.072;11.616;2023-12-20T11:01:49;95379.78;;;5.54;92.40
9225;BME280;4647;48.072;11.616;2023-12-20T11:04:25;95384.78;;;5.59;93.14
9225;BME280;4647;48.072;11.616;2023-12-20T11:06:58;95381.75;;;5.68;93.19
9225;BME280;4647;48.072;11.616;2023-12-20T11:09:35;95374.16;;;5.80;92.92
9225;BME280;4647;48.072;11.616;2023-12-20T11:12:10;95370.34;;;5.85;92.09
9225;BME280;4647;48.072;11.616;2023-12-20T11:14:45;95376.00;;;5.66;92.64
9225;BME280;4647;48.072;11.616;2023-12-20T11:17:14;95371.69;;;5.47;93.75
9225;BME280;4647;48.072;11.616;2023-12-20T11:20:06;95358.94;;;5.37;94.45
9225;BME280;4647;48.072;11.616;2023-12-20T11:22:36;95383.38;;;5.21;94.55
9225;BME280;4647;48.072;11.616;2023-12-20T11:25:09;95373.75;;;5.20;94.75
9225;BME280;4647;48.072;11.616;2023-12-20T11:27:41;95372.66;;;5.21;95.42
9225;BME280;4647;48.072;11.616;2023-12-20T11:30:11;95362.69;;;5.21;95.30
9225;BME280;4647;48.072;11.616;2023-12-20T11:32:42;95363.78;;;5.17;95.40
9225;BME280;4647;48.072;11.616;2023-12-20T11:35:20;95366.44;;;5.17;95.78
9225;BME280;4647;48.072;11.616;2023-12-20T11:37:51;95366.56;;;5.31;95.94
9225;BME280;4647;48.072;11.616;2023-12-20T11:40:19;95362.69;;;5.21;96.58
9225;BME280;4647;48.072;11.616;2023-12-20T11:42:49;95365.75;;;5.23;96.11
9225;BME280;4647;48.072;11.616;2023-12-20T11:45:20;95362.59;;;5.11;97.40
9225;BME280;4647;48.072;11.616;2023-12-20T11:47:51;95363.53;;;5.36;96.73
9225;BME280;4647;48.072;11.616;2023-12-20T11:50:23;95366.97;;;5.33;96.51
9225;BME280;4647;48.072;11.616;2023-12-20T11:52:53;95357.75;;;5.34;95.37
9225;BME280;4647;48.072;11.616;2023-12-20T11:55:22;95362.75;;;5.36;96.54
9225;BME280;4647;48.072;11.616;2023-12-20T11:57:51;95357.75;;;5.34;96.45
9225;BME280;4647;48.072;11.616;2023-12-20T12:00:20;95354.03;;;5.49;96.31
9225;BME280;4647;48.072;11.616;2023-12-20T12:02:58;95348.34;;;5.62;95.63
9225;BME280;4647;48.072;11.616;2023-12-20T12:05:31;95336.44;;;5.63;95.13
9225;BME280;4647;48.072;11.616;2023-12-20T12:07:59;95345.66;;;5.65;93.54
9225;BME280;4647;48.072;11.616;2023-12-20T12:10:29;95345.19;;;5.45;94.68
9225;BME280;4647;48.072;11.616;2023-12-20T12:12:57;95349.84;;;5.55;93.87
9225;BME280;4647;48.072;11.616;2023-12-20T12:15:26;95346.75;;;5.50;94.36
9225;BME280;4647;48.072;11.616;2023-12-20T12:17:55;95346.38;;;5.51;94.66
9225;BME280;4647;48.072;11.616;2023-12-20T12:20:24;95342.94;;;5.54;93.82
9225;BME280;4647;48.072;11.616;2023-12-20T12:23:03;95347.13;;;5.52;94.42
9225;BME280;4647;48.072;11.616;2023-12-20T12:25:35;95346.03;;;5.60;93.46
9225;BME280;4647;48.072;11.616;2023-12-20T12:28:05;95339.75;;;5.38;94.00
9225;BME280;4647;48.072;11.616;2023-12-20T12:30:36;95340.47;;;5.28;94.03
9225;BME280;4647;48.072;11.616;2023-12-20T12:33:05;95329.00;;;5.38;93.81
9225;BME280;4647;48.072;11.616;2023-12-20T12:35:34;95327.03;;;5.28;94.64
9225;BME280;4647;48.072;11.616;2023-12-20T12:38:07;95320.16;;;5.34;94.16
9225;BME280;4647;48.072;11.616;2023-12-20T12:40:36;95320.94;;;5.35;94.22
9225;BME280;4647;48.072;11.616;2023-12-20T12:43:05;95328.22;;;5.34;94.24
9225;BME280;4647;48.072;11.616;2023-12-20T12:45:34;95317.81;;;5.29;94.62
9225;BME280;4647;48.072;11.616;2023-12-20T12:48:02;95314.38;;;5.32;94.45
9225;BME280;4647;48.072;11.616;2023-12-20T12:50:31;95306.69;;;5.27;94.69
9225;BME280;4647;48.072;11.616;2023-12-20T12:52:59;95307.91;;;5.40;94.02
9225;BME280;4647;48.072;11.616;2023-12-20T12:55:32;95317.88;;;5.40;94.20
9225;BME280;4647;48.072;11.616;2023-12-20T12:58:02;95311.41;;;5.44;93.63
9225;BME280;4647;48.072;11.616;2023-12-20T13:00:31;95306.41;;;5.46;93.65
9225;BME280;4647;48.072;11.616;2023-12-20T13:03:00;95309.94;;;5.58;93.17
9225;BME280;4647;48.072;11.616;2023-12-20T13:05:29;95310.78;;;5.72;92.70
9225;BME280;4647;48.072;11.616;2023-12-20T13:07:57;95309.25;;;5.71;92.09
9225;BME280;4647;48.072;11.616;2023-12-20T13:10:26;95305.81;;;5.85;91.75
9225;BME280;4647;48.072;11.616;2023-12-20T13:12:57;95308.50;;;5.81;91.65
9225;BME280;4647;48.072;11.616;2023-12-20T13:15:25;95296.69;;;5.93;91.17
9225;BME280;4647;48.072;11.616;2023-12-20T13:17:54;95293.97;;;5.90;90.93
9225;BME280;4647;48.072;11.616;2023-12-20T13:20:22;95290.47;;;5.89;90.97
9225;BME280;4647;48.072;11.616;2023-12-20T13:22:51;95292.00;;;5.86;91.09
9225;BME280;4647;48.072;11.616;2023-12-20T13:25:19;95293.50;;;5.77;91.28
9225;BME280;4647;48.072;11.616;2023-12-20T13:27:49;95319.63;;;5.76;90.41
9225;BME280;4647;48.072;11.616;2023-12-20T13:30:21;95320.94;;;5.38;90.46
9225;BME280;4647;48.072;11.616;2023-12-20T13:32:49;95330.13;;;4.82;90.78
9225;BME280;4647;48.072;11.616;2023-12-20T13:35:18;95339.03;;;4.49;92.10